Time;durP1;ratioP1;P1;durP2;ratioP2;P2;SDS_P1;SDS_P2;PMS_P1;PMS_P2;Temp;Humidity;BMP_temperature;BMP_pressure;BME280_temperature;BME280_humidity;BME280_pressure;Samples;Min_cycle;Max_cycle;Signal;HPM_P1;HPM_P2
2023/03/31 00:01:07;;;;;;;19.63;4.90;;;11.30;99.90;;;;;;5102291;28;20047;-87
2023/03/31 00:03:37;;;;;;;20.27;5.38;;;11.30;99.90;;;;;;5111812;28;20043;-87
2023/03/31 00:06:03;;;;;;;21.25;5.40;;;11.30;99.90;;;;;;5118263;28;20048;-87
2023/03/31 00:08:34;;;;;;;20.85;5.15;;;11.30;99.90;;;;;;5124265;28;20499;-86
2023/03/31 00:11:01;;;;;;;17.08;4.75;;;11.20;99.90;;;;;;5113434;28;20065;-87
2023/03/31 00:13:28;;;;;;;20.95;5.68;;;11.10;99.90;;;;;;5131455;28;20046;-87
2023/03/31 00:16:02;;;;;;;18.38;4.45;;;11.10;99.90;;;;;;5128400;28;20043;-86
2023/03/31 00:18:28;;;;;;;20.80;5.28;;;11.00;99.90;;;;;;5123219;28;20048;-86
2023/03/31 00:20:58;;;;;;;17.55;5.03;;;10.90;99.90;;;;;;5114311;28;20040;-87
2023/03/31 00:23:26;;;;;;;20.75;5.35;;;10.80;99.90;;;;;;5106566;28;20043;-86
2023/03/31 00:25:54;;;;;;;18.48;5.75;;;10.70;99.90;;;;;;5114672;28;20044;-86
2023/03/31 00:28:20;;;;;;;20.77;5.28;;;10.70;99.90;;;;;;5114648;28;20039;-86
2023/03/31 00:30:47;;;;;;;22.63;5.68;;;10.70;99.90;;;;;;5114521;28;20046;-86
2023/03/31 00:33:13;;;;;;;20.60;5.25;;;10.60;99.90;;;;;;5093523;28;20485;-87
2023/03/31 00:35:39;;;;;;;19.48;5.75;;;10.60;99.90;;;;;;5094302;28;20059;-87
2023/03/31 00:38:07;;;;;;;20.75;5.97;;;10.50;99.90;;;;;;5095469;28;20036;-87
2023/03/31 00:40:34;;;;;;;19.63;5.32;;;10.50;99.90;;;;;;5092600;28;20491;-86
2023/03/31 00:43:00;;;;;;;18.33;5.22;;;10.40;99.90;;;;;;5110610;28;20035;-86
2023/03/31 00:45:30;;;;;;;21.25;5.43;;;10.30;99.90;;;;;;5113788;28;20112;-86
2023/03/31 00:48:04;;;;;;;21.85;6.10;;;10.30;99.90;;;;;;5110175;28;20035;-86
2023/03/31 00:50:39;;;;;;;19.30;5.75;;;10.20;99.90;;;;;;5092557;28;20047;-87
2023/03/31 00:53:13;;;;;;;19.88;5.68;;;10.20;99.90;;;;;;5105327;28;20040;-86
2023/03/31 00:55:46;;;;;;;20.23;5.57;;;10.20;99.90;;;;;;5102769;28;20082;-87
2023/03/31 00:58:13;;;;;;;18.35;4.90;;;10.20;99.90;;;;;;5097944;28;20420;-87
2023/03/31 01:00:40;;;;;;;19.48;5.40;;;10.10;99.90;;;;;;5113429;28;20078;-86
2023/03/31 01:03:08;;;;;;;18.13;5.50;;;10.10;99.90;;;;;;5099568;28;20036;-86
2023/03/31 01:05:41;;;;;;;19.35;5.22;;;10.10;99.90;;;;;;5100088;28;20048;-86
2023/03/31 01:08:07;;;;;;;18.67;5.20;;;10.00;99.90;;;;;;5091890;28;20032;-86
2023/03/31 01:10:40;;;;;;;20.10;5.95;;;10.00;99.90;;;;;;5095673;28;20470;-86
2023/03/31 01:13:11;;;;;;;18.85;5.38;;;10.00;99.90;;;;;;5112722;28;20036;-86
2023/03/31 01:15:37;;;;;;;;;;;9.90;99.90;;;;;;5112911;28;20148;-87
2023/03/31 01:18:05;;;;;;;19.02;5.20;;;9.90;99.90;;;;;;5096188;28;19916;-86
2023/03/31 01:21:05;;;;;;;19.20;5.30;;;9.90;99.90;;;;;;5093921;28;20365;-86
2023/03/31 01:23:49;;;;;;;20.23;5.22;;;9.80;99.90;;;;;;5092823;28;20048;-86
2023/03/31 01:26:52;;;;;;;21.80;5.43;;;9.80;99.90;;;;;;5106410;28;20546;-86
2023/03/31 01:29:52;;;;;;;19.48;5.18;;;9.80;99.90;;;;;;5105565;28;20051;-87
2023/03/31 01:32:34;;;;;;;20.95;5.82;;;9.90;99.90;;;;;;5029358;28;20049;-87
2023/03/31 01:35:35;;;;;;;21.88;5.35;;;9.90;99.90;;;;;;5030628;28;20048;-86
2023/03/31 01:38:26;;;;;;;19.27;5.07;;;9.90;99.90;;;;;;5031846;28;20473;-86
2023/03/31 01:40:58;;;;;;;19.80;5.10;;;9.90;99.90;;;;;;5028113;28;20046;-86
2023/03/31 01:43:30;;;;;;;18.17;5.35;;;9.90;99.90;;;;;;5032161;28;20042;-86
2023/03/31 01:46:02;;;;;;;17.60;5.50;;;9.90;99.90;;;;;;5030079;28;20123;-87
2023/03/31 01:48:47;;;;;;;19.02;5.35;;;9.90;99.90;;;;;;5029509;28;20316;-86
2023/03/31 01:51:20;;;;;;;24.85;6.13;;;9.90;99.90;;;;;;5028759;28;20045;-86
2023/03/31 01:54:11;;;;;;;18.05;5.20;;;9.90;99.90;;;;;;5031523;28;20053;-87
2023/03/31 01:56:46;;;;;;;19.02;5.32;;;9.90;99.90;;;;;;5031766;28;20050;-86
2023/03/31 01:59:44;;;;;;;16.13;5.50;;;9.90;99.90;;;;;;5030105;28;20045;-86
2023/03/31 02:02:16;;;;;;;15.95;5.43;;;9.90;99.90;;;;;;5026522;28;20103;-86
2023/03/31 02:05:01;;;;;;;20.42;5.80;;;9.90;99.90;;;;;;5010290;28;20069;-86
2023/03/31 02:07:44;;;;;;;18.10;5.30;;;9.90;99.90;;;;;;5048410;28;20066;-87
2023/03/31 02:10:11;;;;;;;16.20;5.75;;;9.90;99.90;;;;;;5101250;28;20060;-86
2023/03/31 02:12:41;;;;;;;17.70;5.78;;;9.90;99.90;;;;;;5112393;28;20067;-87
2023/03/31 02:15:10;;;;;;;18.00;5.97;;;9.90;99.90;;;;;;5092169;28;20115;-86
2023/03/31 02:17:38;;;;;;;16.35;6.07;;;9.90;99.90;;;;;;5107577;28;20119;-86
2023/03/31 02:20:10;;;;;;;18.00;6.00;;;9.90;99.90;;;;;;5112117;28;20039;-87
2023/03/31 02:22:38;;;;;;;17.95;5.85;;;10.00;99.90;;;;;;5109330;28;20088;-86
2023/03/31 02:25:07;;;;;;;19.02;6.03;;;10.00;99.90;;;;;;5112544;28;20031;-86
2023/03/31 02:27:36;;;;;;;15.35;5.85;;;10.00;99.90;;;;;;5094079;28;20585;-86
2023/03/31 02:30:03;;;;;;;17.52;6.03;;;10.00;99.90;;;;;;5090166;28;20408;-86
2023/03/31 02:32:34;;;;;;;15.98;5.40;;;10.00;99.90;;;;;;5092415;28;20047;-86
2023/03/31 02:35:00;;;;;;;18.38;6.22;;;10.10;99.90;;;;;;5109835;28;20426;-87
2023/03/31 02:37:28;;;;;;;16.38;5.88;;;10.00;99.90;;;;;;5097110;28;20093;-86
2023/03/31 02:39:56;;;;;;;16.25;5.47;;;10.10;99.90;;;;;;5092285;28;20054;-87
2023/03/31 02:42:22;;;;;;;14.68;5.75;;;10.10;99.90;;;;;;5102124;28;20550;-86
2023/03/31 02:44:48;;;;;;;15.05;5.60;;;10.10;99.90;;;;;;5111244;28;20047;-87
2023/03/31 02:47:16;;;;;;;15.50;6.10;;;10.10;99.90;;;;;;5096101;28;20436;-87
2023/03/31 02:49:47;;;;;;;17.13;5.85;;;10.10;99.90;;;;;;5096134;28;20044;-86
2023/03/31 02:52:22;;;;;;;15.65;5.40;;;10.10;99.90;;;;;;5111273;28;20032;-86
2023/03/31 02:54:53;;;;;;;14.68;5.15;;;10.10;99.90;;;;;;5112152;28;20044;-86
2023/03/31 02:57:44;;;;;;;17.25;5.70;;;10.10;99.90;;;;;;5105455;28;20049;-86
2023/03/31 03:00:34;;;;;;;15.13;5.30;;;10.10;99.90;;;;;;5111975;28;20043;-86
2023/03/31 03:03:14;;;;;;;16.05;5.30;;;10.10;99.90;;;;;;5107579;28;20463;-86
2023/03/31 03:06:23;;;;;;;16.37;5.60;;;10.10;99.90;;;;;;5092528;28;20050;-87
2023/03/31 03:08:54;;;;;;;15.65;5.30;;;10.20;99.90;;;;;;5100065;28;20410;-86
2023/03/31 03:11:44;;;;;;;14.38;5.35;;;10.20;99.90;;;;;;5112829;28;20053;-86
2023/03/31 03:14:35;;;;;;;15.07;5.68;;;10.30;99.90;;;;;;5112151;28;20036;-86
2023/03/31 03:17:08;;;;;;;14.27;5.80;;;10.20;99.90;;;;;;5110394;28;20412;-86
2023/03/31 03:19:33;;;;;;;14.10;5.32;;;10.30;99.90;;;;;;5107581;28;20432;-87
2023/03/31 03:21:59;;;;;;;14.93;5.47;;;10.30;99.90;;;;;;5108412;28;20046;-86
2023/03/31 03:24:28;;;;;;;13.18;5.97;;;10.40;99.90;;;;;;5111650;28;20116;-86
2023/03/31 03:26:54;;;;;;;16.05;5.78;;;10.40;99.90;;;;;;5110047;28;20035;-87
2023/03/31 03:29:20;;;;;;;14.98;5.65;;;10.40;99.90;;;;;;5100746;28;20123;-87
2023/03/31 03:31:46;;;;;;;15.52;5.78;;;10.40;99.90;;;;;;5098423;28;20102;-86
2023/03/31 03:34:12;;;;;;;12.50;5.80;;;10.50;99.90;;;;;;5112489;28;20032;-87
2023/03/31 03:36:38;;;;;;;12.73;5.82;;;10.50;99.90;;;;;;5112443;28;20047;-87
2023/03/31 03:39:06;;;;;;;11.18;5.28;;;10.50;99.90;;;;;;5113257;28;20489;-87
2023/03/31 03:41:32;;;;;;;14.32;5.63;;;10.50;99.90;;;;;;5096023;28;20071;-88
2023/03/31 03:44:01;;;;;;;14.98;6.10;;;10.50;99.90;;;;;;5098117;28;20047;-89
2023/03/31 03:46:27;;;;;;;13.35;5.95;;;10.50;99.90;;;;;;5079724;28;20043;-89
2023/03/31 03:48:53;;;;;;;13.80;6.35;;;10.50;99.90;;;;;;5105956;28;20032;-88
2023/03/31 03:51:18;;;;;;;13.20;5.95;;;10.50;99.90;;;;;;5115546;28;20044;-89
2023/03/31 03:53:44;;;;;;;11.32;5.70;;;10.40;99.90;;;;;;5120537;28;20043;-89
2023/03/31 03:56:10;;;;;;;12.25;5.93;;;10.40;99.90;;;;;;5121393;28;20035;-88
2023/03/31 03:58:35;;;;;;;12.32;5.50;;;10.40;99.90;;;;;;5122690;27;20063;-90
2023/03/31 04:01:01;;;;;;;13.05;5.70;;;10.40;99.90;;;;;;5106102;28;20074;-90
2023/03/31 04:03:26;;;;;;;13.20;5.70;;;10.40;99.90;;;;;;5111374;28;20032;-91
2023/03/31 04:05:52;;;;;;;12.02;5.65;;;10.30;99.90;;;;;;5127591;28;20136;-90
2023/03/31 04:08:18;;;;;;;13.82;6.32;;;10.30;99.90;;;;;;5135878;28;20039;-90
2023/03/31 04:10:45;;;;;;;12.50;5.90;;;10.30;99.90;;;;;;5135753;28;20048;-89
2023/03/31 04:13:11;;;;;;;13.98;6.30;;;10.30;99.90;;;;;;5127226;27;20039;-89
2023/03/31 04:15:37;;;;;;;13.07;6.05;;;10.30;99.90;;;;;;5115196;28;20043;-90
2023/03/31 04:18:03;;;;;;;14.20;6.13;;;10.30;99.90;;;;;;5113593;28;20369;-89
2023/03/31 04:20:30;;;;;;;14.02;6.03;;;10.30;99.90;;;;;;5114225;28;20071;-89
2023/03/31 04:22:56;;;;;;;14.13;6.82;;;10.30;99.90;;;;;;5115349;27;20475;-89
2023/03/31 04:25:22;;;;;;;12.80;6.15;;;10.20;99.90;;;;;;5109273;28;20028;-87
2023/03/31 04:27:53;;;;;;;12.73;5.95;;;10.30;99.90;;;;;;5116418;28;20080;-88
2023/03/31 04:30:23;;;;;;;13.45;6.30;;;10.20;99.90;;;;;;5115055;28;20055;-88
2023/03/31 04:32:51;;;;;;;11.63;6.20;;;10.30;99.90;;;;;;5101304;28;20392;-88
2023/03/31 04:35:19;;;;;;;13.55;6.45;;;10.20;99.90;;;;;;5110232;28;20046;-88
2023/03/31 04:37:46;;;;;;;12.18;5.90;;;10.30;99.90;;;;;;5110534;28;20032;-88
2023/03/31 04:40:12;;;;;;;14.25;6.43;;;10.20;99.90;;;;;;5094921;28;20085;-88
2023/03/31 04:42:38;;;;;;;15.60;6.32;;;10.30;99.90;;;;;;5097157;28;20438;-88
2023/03/31 04:45:04;;;;;;;13.98;5.65;;;10.30;99.90;;;;;;5094576;28;20071;-88
2023/03/31 04:47:30;;;;;;;14.10;6.32;;;10.30;99.90;;;;;;5107763;28;20036;-88
2023/03/31 04:49:55;;;;;;;16.05;6.13;;;10.30;99.90;;;;;;5107204;28;20410;-89
2023/03/31 04:52:21;;;;;;;13.38;6.40;;;10.30;99.90;;;;;;5106140;28;20048;-91
2023/03/31 04:54:47;;;;;;;14.00;6.03;;;10.30;99.90;;;;;;5100898;28;20031;-87
2023/03/31 04:57:12;;;;;;;16.52;6.05;;;10.30;99.90;;;;;;5103049;28;20103;-90
2023/03/31 04:59:38;;;;;;;14.48;5.93;;;10.30;99.90;;;;;;5111850;28;20044;-94
2023/03/31 05:02:03;;;;;;;12.15;5.65;;;10.30;99.90;;;;;;5112121;28;20441;-96
2023/03/31 05:04:29;;;;;;;14.02;6.03;;;10.30;99.90;;;;;;5114536;28;20036;-90
2023/03/31 05:06:55;;;;;;;13.48;5.85;;;10.30;99.90;;;;;;5112432;28;20062;-87
2023/03/31 05:09:21;;;;;;;13.80;6.22;;;10.30;99.90;;;;;;5112610;28;20051;-85
2023/03/31 05:11:46;;;;;;;14.07;6.68;;;10.30;99.90;;;;;;5113759;28;20486;-86
2023/03/31 05:14:12;;;;;;;15.77;6.38;;;10.30;99.90;;;;;;5100216;28;20093;-85
2023/03/31 05:16:38;;;;;;;16.08;6.50;;;10.30;99.90;;;;;;5100203;28;20028;-86
2023/03/31 05:19:04;;;;;;;15.77;6.45;;;10.30;99.90;;;;;;5097839;28;20083;-88
2023/03/31 05:21:30;;;;;;;13.55;5.95;;;10.30;99.90;;;;;;5103305;28;20035;-86
2023/03/31 05:23:56;;;;;;;13.13;6.63;;;10.30;99.90;;;;;;5101919;28;20043;-89
2023/03/31 05:26:23;;;;;;;15.30;6.60;;;10.30;99.90;;;;;;5101302;28;20342;-87
2023/03/31 05:28:53;;;;;;;13.38;6.22;;;10.30;99.90;;;;;;5097944;28;20119;-90
2023/03/31 05:31:19;;;;;;;14.75;6.82;;;10.20;99.90;;;;;;5107165;28;20076;-87
2023/03/31 05:33:45;;;;;;;13.13;6.38;;;10.30;99.90;;;;;;5098538;28;20081;-88
2023/03/31 05:36:13;;;;;;;13.25;6.63;;;10.30;99.90;;;;;;5095425;28;20759;-88
2023/03/31 05:38:40;;;;;;;14.43;6.57;;;10.20;99.90;;;;;;5100459;28;20036;-87
2023/03/31 05:41:08;;;;;;;12.85;6.68;;;10.30;99.90;;;;;;5101969;28;20048;-87
2023/03/31 05:43:34;;;;;;;15.43;7.00;;;10.30;99.90;;;;;;5099712;28;20043;-86
2023/03/31 05:46:00;;;;;;;15.07;6.72;;;10.30;99.90;;;;;;5093133;28;20032;-86
2023/03/31 05:48:26;;;;;;;12.00;6.65;;;10.30;99.90;;;;;;5093015;28;20397;-87
2023/03/31 05:50:56;;;;;;;12.80;6.40;;;10.20;99.90;;;;;;5109250;28;20028;-89
2023/03/31 05:53:22;;;;;;;14.82;6.18;;;10.30;99.90;;;;;;5098693;28;20032;-88
2023/03/31 05:55:48;;;;;;;14.38;6.63;;;10.30;99.90;;;;;;5113884;28;20499;-91
2023/03/31 05:58:13;;;;;;;13.10;6.45;;;10.20;99.90;;;;;;5106151;28;20127;-87
2023/03/31 06:00:39;;;;;;;12.80;6.30;;;10.30;99.90;;;;;;5108554;28;20039;-90
2023/03/31 06:03:06;;;;;;;15.85;6.57;;;10.20;99.90;;;;;;5108495;28;20035;-88
2023/03/31 06:05:33;;;;;;;15.75;6.50;;;10.20;99.90;;;;;;5102064;28;20047;-88
2023/03/31 06:07:59;;;;;;;15.50;6.78;;;10.30;99.90;;;;;;5113143;28;20039;-88
2023/03/31 06:10:25;;;;;;;11.88;5.70;;;10.30;99.90;;;;;;5112836;28;20135;-89
2023/03/31 06:12:50;;;;;;;12.63;5.68;;;10.20;99.90;;;;;;5113926;28;20031;-90
2023/03/31 06:15:16;;;;;;;13.40;6.20;;;10.20;99.90;;;;;;5112591;28;20065;-88
2023/03/31 06:17:41;;;;;;;11.48;6.03;;;10.30;99.90;;;;;;5092616;28;20484;-87
2023/03/31 06:20:08;;;;;;;12.57;5.85;;;10.30;99.90;;;;;;5093538;28;20059;-88
2023/03/31 06:22:33;;;;;;;14.60;6.15;;;10.30;99.90;;;;;;5092190;28;20434;-86
2023/03/31 06:24:59;;;;;;;12.88;6.05;;;10.30;99.90;;;;;;5111325;28;20032;-92
2023/03/31 06:27:24;;;;;;;12.80;6.20;;;10.30;99.90;;;;;;5103608;28;20052;-93
2023/03/31 06:29:50;;;;;;;14.50;6.78;;;10.30;99.90;;;;;;5104239;28;20039;-92
2023/03/31 06:32:16;;;;;;;11.25;5.90;;;10.30;99.90;;;;;;5112428;28;20043;-90
2023/03/31 06:34:41;;;;;;;13.68;6.65;;;10.30;99.90;;;;;;5097266;28;20043;-87
2023/03/31 06:37:07;;;;;;;12.25;6.35;;;10.30;99.90;;;;;;5098403;28;20095;-91
2023/03/31 06:39:32;;;;;;;11.25;6.20;;;10.30;99.90;;;;;;5097544;28;20122;-87
2023/03/31 06:41:58;;;;;;;13.00;6.55;;;10.30;99.90;;;;;;5110056;28;20108;-88
2023/03/31 06:44:24;;;;;;;13.70;6.30;;;10.30;99.90;;;;;;5108932;28;20051;-87
2023/03/31 06:46:49;;;;;;;14.77;7.22;;;10.40;99.90;;;;;;5108357;28;20043;-88
2023/03/31 06:49:15;;;;;;;14.48;5.88;;;10.40;99.90;;;;;;5096715;28;20647;-87
2023/03/31 06:51:41;;;;;;;15.27;6.38;;;10.40;99.90;;;;;;5112605;28;20112;-87
2023/03/31 06:54:06;;;;;;;15.45;6.28;;;10.40;99.90;;;;;;5109805;28;20468;-87
2023/03/31 06:56:32;;;;;;;14.70;5.90;;;10.40;99.90;;;;;;5092264;28;20040;-87
2023/03/31 06:58:57;;;;;;;16.50;5.85;;;10.40;99.90;;;;;;5095647;28;20043;-86
2023/03/31 07:01:23;;;;;;;14.20;5.55;;;10.40;99.90;;;;;;5109820;28;21713;-88
2023/03/31 07:03:49;;;;;;;12.80;5.68;;;10.40;99.90;;;;;;5106918;28;20480;-88
2023/03/31 07:06:15;;;;;;;12.50;5.22;;;10.40;99.90;;;;;;5105189;28;20038;-86
2023/03/31 07:08:40;;;;;;;12.02;5.30;;;10.40;99.90;;;;;;5111377;28;20036;-91
2023/03/31 07:11:06;;;;;;;11.55;4.97;;;10.40;99.90;;;;;;5117909;28;20402;-89
2023/03/31 07:13:32;;;;;;;12.57;5.45;;;10.40;99.90;;;;;;5103179;28;20040;-89
2023/03/31 07:15:57;;;;;;;11.70;5.05;;;10.40;99.90;;;;;;5101557;28;20044;-89
2023/03/31 07:18:30;;;;;;;14.15;5.07;;;10.40;99.90;;;;;;5114909;28;20093;-89
2023/03/31 07:20:56;;;;;;;11.90;4.97;;;10.40;99.90;;;;;;5114088;28;20124;-88
2023/03/31 07:23:22;;;;;;;10.60;4.93;;;10.40;99.90;;;;;;5094561;28;20504;-89
2023/03/31 07:25:48;;;;;;;11.23;4.75;;;10.40;99.90;;;;;;5101769;28;20032;-89
2023/03/31 07:28:14;;;;;;;12.57;5.45;;;10.40;99.90;;;;;;5095097;28;20051;-89
2023/03/31 07:30:40;;;;;;;14.38;5.70;;;10.50;99.90;;;;;;5105998;28;20028;-89
2023/03/31 07:33:06;;;;;;;13.70;5.68;;;10.50;99.90;;;;;;5097583;28;20203;-89
2023/03/31 07:35:32;;;;;;;13.63;5.82;;;10.50;99.90;;;;;;5115414;28;20051;-88
2023/03/31 07:37:58;;;;;;;14.07;6.13;;;10.50;99.90;;;;;;5119421;28;20031;-88
2023/03/31 07:40:26;;;;;;;13.23;5.40;;;10.60;99.90;;;;;;5118015;28;20107;-90
2023/03/31 07:42:52;;;;;;;13.13;5.72;;;10.60;99.90;;;;;;5114580;28;20071;-89
2023/03/31 07:45:20;;;;;;;13.77;5.57;;;10.60;99.90;;;;;;5107481;28;20058;-91
2023/03/31 07:47:47;;;;;;;13.13;5.60;;;10.60;99.90;;;;;;5127378;28;20051;-93
2023/03/31 07:50:14;;;;;;;14.40;5.78;;;10.70;99.90;;;;;;5127207;28;20040;-95
2023/03/31 07:52:40;;;;;;;13.38;6.07;;;10.70;99.90;;;;;;5128347;28;20031;-91
2023/03/31 07:55:07;;;;;;;13.80;5.75;;;10.70;99.90;;;;;;5119699;28;20071;-89
2023/03/31 07:57:34;;;;;;;13.18;5.63;;;10.80;99.90;;;;;;5102222;28;20785;-86
2023/03/31 08:00:00;;;;;;;15.35;5.55;;;10.80;99.90;;;;;;5113395;28;20085;-85
2023/03/31 08:02:26;;;;;;;11.80;4.90;;;10.80;99.90;;;;;;5107628;28;20047;-84
2023/03/31 08:04:52;;;;;;;11.38;5.03;;;10.80;99.90;;;;;;5108919;28;20036;-84
2023/03/31 08:07:18;;;;;;;13.55;5.20;;;10.80;99.90;;;;;;5098788;28;20535;-84
2023/03/31 08:09:45;;;;;;;12.80;5.13;;;10.90;99.90;;;;;;5113212;28;20036;-89
2023/03/31 08:12:12;;;;;;;14.25;5.18;;;10.90;99.90;;;;;;5112175;28;20035;-86
2023/03/31 08:14:38;;;;;;;13.15;5.15;;;10.90;99.90;;;;;;5107179;28;20037;-87
2023/03/31 08:17:04;;;;;;;13.35;5.22;;;10.90;99.90;;;;;;5110936;28;20039;-86
2023/03/31 08:19:29;;;;;;;11.57;4.80;;;11.00;99.90;;;;;;5113303;28;20039;-87
2023/03/31 08:21:55;;;;;;;11.38;4.90;;;11.00;99.90;;;;;;5112102;28;20032;-87
2023/03/31 08:24:21;;;;;;;11.82;4.90;;;11.00;99.90;;;;;;5090819;28;20047;-88
2023/03/31 08:26:47;;;;;;;12.90;4.65;;;11.10;99.90;;;;;;5099393;28;20046;-85
2023/03/31 08:29:13;;;;;;;11.10;4.38;;;11.10;99.90;;;;;;5110430;28;20080;-93
2023/03/31 08:31:39;;;;;;;15.88;5.32;;;11.10;99.90;;;;;;5113529;28;20092;-95
2023/03/31 08:34:05;;;;;;;13.25;4.55;;;11.10;99.90;;;;;;5098202;28;20068;-95
2023/03/31 08:36:31;;;;;;;14.38;5.25;;;11.20;99.90;;;;;;5098433;28;20036;-93
2023/03/31 08:38:57;;;;;;;11.32;4.65;;;11.20;99.90;;;;;;5098357;28;20136;-92
2023/03/31 08:41:44;;;;;;;11.30;4.22;;;11.20;99.90;;;;;;5113791;28;20523;-93
2023/03/31 08:44:35;;;;;;;11.77;4.65;;;11.30;99.90;;;;;;5113906;28;20046;-92
2023/03/31 08:47:03;;;;;;;11.00;4.68;;;11.30;99.90;;;;;;5105701;28;20031;-86
2023/03/31 08:49:38;;;;;;;12.93;4.28;;;11.30;99.90;;;;;;5107325;28;20490;-88
2023/03/31 08:52:11;;;;;;;11.88;4.05;;;11.30;99.90;;;;;;5107496;28;20129;-88
2023/03/31 08:54:43;;;;;;;12.30;4.32;;;11.30;99.90;;;;;;5108020;28;20443;-86
2023/03/31 08:57:18;;;;;;;10.45;4.18;;;11.40;99.90;;;;;;5108848;28;20043;-94
2023/03/31 08:59:45;;;;;;;9.77;3.90;;;11.40;99.90;;;;;;5111272;28;20399;-91
2023/03/31 09:02:35;;;;;;;9.90;3.75;;;11.40;99.90;;;;;;5097842;28;20044;-91
2023/03/31 09:05:15;;;;;;;10.65;3.88;;;11.30;99.90;;;;;;5092581;28;20046;-88
2023/03/31 09:08:11;;;;;;;9.68;4.20;;;11.30;99.90;;;;;;5106910;28;20073;-88
2023/03/31 09:10:49;;;;;;;10.65;3.63;;;11.30;99.90;;;;;;5101006;28;20040;-89
2023/03/31 09:13:46;;;;;;;10.98;3.85;;;11.30;99.90;;;;;;5102284;28;20051;-87
2023/03/31 09:16:13;;;;;;;11.38;3.70;;;11.30;99.90;;;;;;5099114;28;20047;-88
2023/03/31 09:18:45;;;;;;;10.70;4.32;;;11.30;99.90;;;;;;5095644;28;20044;-88
2023/03/31 09:21:36;;;;;;;9.88;3.63;;;11.30;99.90;;;;;;5102369;28;20135;-86
2023/03/31 09:24:15;;;;;;;;;;;11.30;99.90;;;;;;5093506;28;20051;-88
2023/03/31 09:26:48;;;;;;;9.57;3.38;;;11.30;99.90;;;;;;5101061;28;20284;-86
2023/03/31 09:29:28;;;;;;;8.85;3.55;;;11.30;99.90;;;;;;5097450;28;20048;-90
2023/03/31 09:31:55;;;;;;;9.35;3.60;;;11.30;99.90;;;;;;5104206;28;20430;-87
2023/03/31 09:34:29;;;;;;;9.45;4.05;;;11.40;99.90;;;;;;5103082;28;20109;-92
2023/03/31 09:36:54;;;;;;;8.85;3.42;;;11.40;99.90;;;;;;5112174;28;20388;-93
2023/03/31 09:39:20;;;;;;;11.52;4.03;;;11.40;99.90;;;;;;5107080;28;20055;-93
2023/03/31 09:41:49;;;;;;;9.80;3.90;;;11.40;99.90;;;;;;5105944;28;20067;-92
2023/03/31 09:44:30;;;;;;;9.48;3.50;;;11.40;99.90;;;;;;5104157;28;20123;-90
2023/03/31 09:46:56;;;;;;;9.40;4.00;;;11.40;99.90;;;;;;5099758;28;20036;-89
2023/03/31 09:49:27;;;;;;;8.10;3.50;;;11.50;99.90;;;;;;5102625;28;20040;-87
2023/03/31 09:52:24;;;;;;;9.37;3.70;;;11.50;99.90;;;;;;5094763;28;20039;-86
2023/03/31 09:54:53;;;;;;;7.63;3.63;;;11.50;99.90;;;;;;5097561;28;20047;-87
2023/03/31 09:57:33;;;;;;;10.85;3.90;;;11.60;99.90;;;;;;5104923;28;20087;-86
2023/03/31 10:00:28;;;;;;;8.05;3.75;;;11.70;99.90;;;;;;5106800;28;20048;-87
2023/03/31 10:02:56;;;;;;;10.18;3.70;;;11.80;99.90;;;;;;5103381;28;20056;-87
2023/03/31 10:05:31;;;;;;;7.65;3.50;;;11.90;99.90;;;;;;5102435;28;20044;-87
2023/03/31 10:08:23;;;;;;;8.55;3.67;;;11.90;99.90;;;;;;5101398;28;20039;-87
2023/03/31 10:10:54;;;;;;;7.68;3.30;;;11.90;99.90;;;;;;5104224;28;20047;-87
2023/03/31 10:13:26;;;;;;;8.93;3.40;;;11.90;99.90;;;;;;5105557;28;20040;-86
2023/03/31 10:16:03;;;;;;;7.90;3.15;;;12.00;99.90;;;;;;5093928;28;20036;-87
2023/03/31 10:18:35;;;;;;;7.40;3.08;;;12.00;99.90;;;;;;5104299;28;20040;-86
2023/03/31 10:21:03;;;;;;;6.65;2.83;;;12.10;99.90;;;;;;5106931;28;20059;-87
2023/03/31 10:23:31;;;;;;;8.40;3.40;;;12.20;99.90;;;;;;5107803;28;20094;-87
2023/03/31 10:25:58;;;;;;;6.63;2.88;;;12.20;99.90;;;;;;5083366;28;20044;-89
2023/03/31 10:28:25;;;;;;;7.63;3.05;;;12.40;99.90;;;;;;5101733;28;20075;-90
2023/03/31 10:30:53;;;;;;;6.18;2.30;;;12.40;99.90;;;;;;5100887;28;20044;-89
2023/03/31 10:33:26;;;;;;;7.85;2.67;;;12.50;99.90;;;;;;5104800;28;20071;-88
2023/03/31 10:35:57;;;;;;;7.20;2.60;;;12.40;99.90;;;;;;5106573;28;20044;-86
2023/03/31 10:38:30;;;;;;;7.75;2.60;;;12.40;99.90;;;;;;5103420;28;20123;-87
2023/03/31 10:40:57;;;;;;;7.15;2.80;;;12.30;99.90;;;;;;5107548;28;20101;-87
2023/03/31 10:43:37;;;;;;;8.75;2.60;;;12.30;99.90;;;;;;5102918;28;20450;-88
2023/03/31 10:46:03;;;;;;;8.15;2.70;;;12.30;99.90;;;;;;5100905;28;20442;-87
2023/03/31 10:48:40;;;;;;;7.85;3.30;;;12.30;99.90;;;;;;5106447;28;20395;-87
2023/03/31 10:51:25;;;;;;;10.23;2.90;;;12.30;99.90;;;;;;5098018;28;20043;-87
2023/03/31 10:53:53;;;;;;;6.60;2.60;;;12.30;99.90;;;;;;5090093;28;20043;-88
2023/03/31 10:56:42;;;;;;;7.70;2.80;;;12.20;99.90;;;;;;5103655;28;20110;-88
2023/03/31 10:59:36;;;;;;;8.25;3.25;;;12.20;99.90;;;;;;5099176;28;20134;-87
2023/03/31 11:02:20;;;;;;;7.55;2.95;;;12.20;99.90;;;;;;5097404;28;20044;-87
2023/03/31 11:04:56;;;;;;;6.05;2.50;;;12.10;99.90;;;;;;5103109;28;20055;-89
2023/03/31 11:07:26;;;;;;;8.85;2.90;;;12.10;99.90;;;;;;5105756;28;20031;-91
2023/03/31 11:10:04;;;;;;;8.07;2.80;;;12.20;99.90;;;;;;5110444;28;20035;-91
2023/03/31 11:12:50;;;;;;;7.78;2.50;;;12.40;99.90;;;;;;5096096;28;20043;-90
2023/03/31 11:15:45;;;;;;;7.03;2.50;;;12.60;99.90;;;;;;5097574;28;20392;-91
2023/03/31 11:18:40;;;;;;;9.07;3.05;;;12.70;99.90;;;;;;5100894;28;20039;-92
2023/03/31 11:21:22;;;;;;;8.27;2.92;;;12.70;99.90;;;;;;5096265;28;20040;-92
2023/03/31 11:24:36;;;;;;;8.45;2.92;;;12.80;99.90;;;;;;5105093;28;20043;-89
2023/03/31 11:27:36;;;;;;;8.10;2.55;;;12.80;99.90;;;;;;5087974;28;20048;-92
2023/03/31 11:30:32;;;;;;;8.07;2.85;;;12.70;99.90;;;;;;5086562;28;20082;-89
2023/03/31 11:33:00;;;;;;;9.43;3.60;;;12.70;99.90;;;;;;5105888;28;20051;-88
2023/03/31 11:35:53;;;;;;;9.60;3.50;;;12.60;99.90;;;;;;5097178;28;20106;-88
2023/03/31 11:38:32;;;;;;;10.10;3.33;;;12.70;99.90;;;;;;5093891;28;20076;-87
2023/03/31 11:41:02;;;;;;;10.25;3.63;;;12.70;99.90;;;;;;5092549;28;20136;-88
2023/03/31 11:43:36;;;;;;;9.50;3.47;;;12.80;99.90;;;;;;5104728;28;20043;-92
2023/03/31 11:46:20;;;;;;;8.77;3.22;;;12.90;99.90;;;;;;5100220;28;20101;-89
2023/03/31 11:48:58;;;;;;;10.07;3.60;;;13.00;99.90;;;;;;5095942;28;20040;-89
2023/03/31 11:51:42;;;;;;;10.15;3.65;;;13.10;99.90;;;;;;5103098;28;20049;-88
2023/03/31 11:54:15;;;;;;;9.60;3.85;;;13.10;99.90;;;;;;5102324;28;20032;-93
2023/03/31 11:56:40;;;;;;;9.63;3.45;;;13.30;99.90;;;;;;5105892;28;20039;-89
2023/03/31 11:59:14;;;;;;;11.90;4.20;;;13.40;99.90;;;;;;5101694;28;20051;-90
2023/03/31 12:02:20;;;;;;;12.13;4.13;;;13.50;99.90;;;;;;5104938;28;20038;-88
2023/03/31 12:04:52;;;;;;;10.25;3.92;;;13.50;99.90;;;;;;5073801;28;20070;-88
2023/03/31 12:07:40;;;;;;;11.82;4.15;;;13.60;99.90;;;;;;5080986;28;20600;-91
2023/03/31 12:10:12;;;;;;;10.73;3.70;;;13.60;99.90;;;;;;5072573;28;20101;-89
2023/03/31 12:13:22;;;;;;;11.18;4.45;;;13.60;99.90;;;;;;5090606;28;20052;-87
2023/03/31 12:16:12;;;;;;;12.15;4.10;;;13.60;99.90;;;;;;5077294;28;20143;-86
2023/03/31 12:19:04;;;;;;;11.57;4.22;;;13.60;99.90;;;;;;5072365;28;20040;-86
2023/03/31 12:21:32;;;;;;;10.95;4.65;;;13.60;99.90;;;;;;5069457;28;20045;-86
2023/03/31 12:23:58;;;;;;;10.75;4.15;;;13.60;99.90;;;;;;5065751;28;20045;-86
2023/03/31 12:26:30;;;;;;;15.10;5.28;;;13.60;99.90;;;;;;5067103;28;20033;-87
2023/03/31 12:29:03;;;;;;;19.60;4.88;;;13.80;99.90;;;;;;5063126;28;20053;-85
2023/03/31 12:31:31;;;;;;;10.95;4.45;;;14.10;99.90;;;;;;5064697;28;20059;-88
2023/03/31 12:34:04;;;;;;;11.73;4.22;;;14.40;99.90;;;;;;5066058;28;20644;-86
2023/03/31 12:36:39;;;;;;;11.43;4.07;;;14.50;99.90;;;;;;5094497;28;20048;-84
2023/03/31 12:39:29;;;;;;;12.48;4.05;;;14.60;99.90;;;;;;5095743;28;20103;-85
2023/03/31 12:42:23;;;;;;;13.10;4.47;;;14.60;99.90;;;;;;5099600;28;20036;-86
2023/03/31 12:45:19;;;;;;;9.50;4.00;;;14.40;99.90;;;;;;5103049;28;20031;-86
2023/03/31 12:47:57;;;;;;;12.32;4.28;;;14.40;99.90;;;;;;5094456;28;20051;-84
2023/03/31 12:50:34;;;;;;;12.60;4.45;;;14.20;99.90;;;;;;5103205;28;20365;-86
2023/03/31 12:53:21;;;;;;;12.18;3.95;;;14.10;99.90;;;;;;5095447;28;20512;-86
2023/03/31 12:55:57;;;;;;;14.25;4.75;;;14.00;99.90;;;;;;5100809;28;20097;-88
2023/03/31 12:58:27;;;;;;;14.43;4.78;;;13.90;99.90;;;;;;5098407;28;20091;-89
2023/03/31 13:01:18;;;;;;;12.68;4.60;;;13.70;99.90;;;;;;5106723;28;20067;-87
2023/03/31 13:04:18;;;;;;;13.57;4.68;;;13.60;99.90;;;;;;5098072;28;20085;-88
2023/03/31 13:06:50;;;;;;;14.88;5.60;;;13.50;99.90;;;;;;5099198;28;20036;-91